Time;durP1;ratioP1;P1;durP2;ratioP2;P2;SDS_P1;SDS_P2;PMS_P1;PMS_P2;Temp;Humidity;BMP_temperature;BMP_pressure;BME280_temperature;BME280_humidity;BME280_pressure;Samples;Min_cycle;Max_cycle;Signal;HPM_P1;HPM_P2
2024/02/18 00:01:05;;;;;;;2.17;0.90;;;9.50;99.90;;;;;;5138649;27;20446;-59
2024/02/18 00:03:34;;;;;;;1.30;0.90;;;9.40;99.90;;;;;;5135444;27;20477;-60
2024/02/18 00:06:01;;;;;;;2.40;0.90;;;9.50;99.90;;;;;;5134992;27;20842;-60
2024/02/18 00:08:28;;;;;;;1.52;0.90;;;9.40;99.90;;;;;;5136841;27;20503;-60
2024/02/18 00:10:57;;;;;;;2.13;0.90;;;9.50;99.90;;;;;;5135240;27;20453;-59
2024/02/18 00:13:23;;;;;;;1.42;0.80;;;9.70;99.90;;;;;;5131646;27;20486;-59
2024/02/18 00:15:50;;;;;;;1.47;0.83;;;9.80;99.90;;;;;;5135068;27;20877;-59
2024/02/18 00:18:17;;;;;;;2.47;0.90;;;9.90;99.90;;;;;;5137674;27;20545;-59
2024/02/18 00:20:44;;;;;;;1.57;0.90;;;9.90;99.90;;;;;;5132815;27;20774;-59
2024/02/18 00:23:11;;;;;;;1.40;0.90;;;9.80;99.90;;;;;;5134017;27;20736;-60
2024/02/18 00:25:38;;;;;;;1.88;1.02;;;9.80;99.90;;;;;;5131214;27;20505;-60
2024/02/18 00:28:07;;;;;;;2.30;1.10;;;9.80;99.90;;;;;;5138121;27;20445;-60
2024/02/18 00:30:34;;;;;;;1.88;1.00;;;9.90;99.90;;;;;;5132517;27;20422;-64
2024/02/18 00:33:01;;;;;;;2.08;1.10;;;9.90;99.90;;;;;;5136181;27;20457;-59
2024/02/18 00:35:28;;;;;;;1.75;0.85;;;10.00;99.90;;;;;;5129550;27;20414;-60
2024/02/18 00:37:55;;;;;;;1.33;0.90;;;10.00;99.90;;;;;;5122080;27;20509;-59
2024/02/18 00:40:22;;;;;;;1.73;0.97;;;10.00;99.90;;;;;;5125230;27;20433;-59
2024/02/18 00:42:49;;;;;;;1.77;1.00;;;10.00;99.90;;;;;;5127422;27;20509;-59
2024/02/18 00:45:18;;;;;;;2.10;1.02;;;9.90;99.90;;;;;;5127872;27;20465;-59
2024/02/18 00:47:44;;;;;;;1.60;1.10;;;10.00;99.90;;;;;;5130588;27;20494;-58
2024/02/18 00:50:12;;;;;;;2.20;1.00;;;10.00;99.90;;;;;;5127445;27;20477;-60
2024/02/18 00:52:39;;;;;;;2.10;1.00;;;10.00;99.90;;;;;;5131505;27;20493;-59
2024/02/18 00:55:07;;;;;;;1.90;1.00;;;9.90;99.90;;;;;;5129127;27;20416;-60
2024/02/18 00:57:34;;;;;;;1.80;1.00;;;10.00;99.90;;;;;;5126161;27;20538;-59
2024/02/18 01:00:02;;;;;;;2.65;0.93;;;10.00;99.90;;;;;;5129713;27;20488;-60
2024/02/18 01:02:30;;;;;;;2.80;1.20;;;10.00;99.90;;;;;;5135118;27;20720;-59
2024/02/18 01:04:57;;;;;;;2.97;1.10;;;10.10;99.90;;;;;;5136179;27;20521;-60
2024/02/18 01:07:24;;;;;;;1.90;1.10;;;10.00;99.90;;;;;;5135846;28;20414;-60
2024/02/18 01:09:51;;;;;;;3.33;1.00;;;10.00;99.90;;;;;;5134095;28;20905;-60
2024/02/18 01:12:19;;;;;;;2.20;1.00;;;10.10;99.90;;;;;;5133536;28;20835;-60
2024/02/18 01:14:46;;;;;;;2.15;1.10;;;10.10;99.90;;;;;;5124700;28;20418;-60
2024/02/18 01:17:16;;;;;;;2.58;1.20;;;10.10;99.90;;;;;;5133353;28;20479;-59
2024/02/18 01:19:45;;;;;;;2.08;1.20;;;10.10;99.90;;;;;;5118363;28;20678;-60
2024/02/18 01:22:12;;;;;;;2.77;1.20;;;10.10;99.90;;;;;;5135497;28;20429;-60
2024/02/18 01:24:39;;;;;;;2.75;1.25;;;10.10;99.90;;;;;;5136124;28;20812;-59
2024/02/18 01:27:06;;;;;;;2.70;1.23;;;10.00;99.90;;;;;;5133478;28;20418;-60
2024/02/18 01:29:35;;;;;;;2.73;1.17;;;10.00;99.90;;;;;;5133546;28;20411;-59
2024/02/18 01:32:03;;;;;;;3.50;1.20;;;10.00;99.90;;;;;;5134678;28;20446;-59
2024/02/18 01:34:30;;;;;;;2.00;1.20;;;10.00;99.90;;;;;;5135687;28;20413;-59
2024/02/18 01:36:58;;;;;;;2.80;1.20;;;9.90;99.90;;;;;;5131356;28;20773;-59
2024/02/18 01:39:26;;;;;;;2.07;1.10;;;9.90;99.90;;;;;;5130869;28;20527;-60
2024/02/18 01:41:54;;;;;;;2.90;1.20;;;9.90;99.90;;;;;;5134227;28;20436;-59
2024/02/18 01:44:21;;;;;;;2.20;1.10;;;9.90;99.90;;;;;;5127377;28;20430;-59
2024/02/18 01:46:48;;;;;;;2.80;1.30;;;9.90;99.90;;;;;;5123108;28;20754;-59
2024/02/18 01:49:15;;;;;;;4.03;1.27;;;9.90;99.90;;;;;;5133235;28;20992;-59
2024/02/18 01:51:43;;;;;;;3.47;1.40;;;9.80;99.90;;;;;;5134648;28;20421;-60
2024/02/18 01:54:12;;;;;;;3.95;1.80;;;9.80;99.90;;;;;;5128750;28;20443;-60
2024/02/18 01:56:41;;;;;;;2.80;1.30;;;9.80;99.90;;;;;;5136957;28;20484;-60
2024/02/18 01:59:08;;;;;;;3.90;1.20;;;9.70;99.90;;;;;;5134344;28;20989;-59
2024/02/18 02:01:35;;;;;;;3.03;1.10;;;9.40;99.90;;;;;;5128146;28;20518;-59
2024/02/18 02:04:03;;;;;;;3.83;1.60;;;9.30;99.90;;;;;;5130632;28;20465;-60
2024/02/18 02:06:31;;;;;;;2.05;1.17;;;9.30;99.90;;;;;;5133139;28;20498;-59
2024/02/18 02:08:58;;;;;;;3.22;1.30;;;9.30;99.90;;;;;;5117077;28;20420;-60
2024/02/18 02:11:27;;;;;;;1.93;1.07;;;9.30;99.90;;;;;;5130395;28;20420;-59
2024/02/18 02:13:54;;;;;;;2.00;1.20;;;9.30;99.90;;;;;;5138105;27;20448;-59
2024/02/18 02:16:21;;;;;;;2.60;1.20;;;9.50;99.90;;;;;;5133407;27;20475;-60
2024/02/18 02:18:48;;;;;;;2.92;1.20;;;9.50;99.90;;;;;;5139112;27;20415;-59
2024/02/18 02:21:17;;;;;;;1.70;1.20;;;9.50;99.90;;;;;;5134715;27;20415;-59
2024/02/18 02:23:44;;;;;;;2.73;1.10;;;9.40;99.90;;;;;;5139057;27;20479;-59
2024/02/18 02:26:14;;;;;;;2.50;1.23;;;9.40;99.90;;;;;;5136914;27;20448;-59
2024/02/18 02:28:47;;;;;;;1.90;1.00;;;9.50;99.90;;;;;;5125214;27;20422;-60
2024/02/18 02:31:16;;;;;;;2.42;1.10;;;9.40;99.90;;;;;;5128941;27;20419;-59
2024/02/18 02:33:44;;;;;;;2.47;1.13;;;9.40;99.90;;;;;;5130780;27;20544;-59
2024/02/18 02:36:12;;;;;;;1.90;1.00;;;9.50;99.90;;;;;;5132419;27;20418;-60
2024/02/18 02:38:39;;;;;;;1.98;1.10;;;9.50;99.90;;;;;;5132544;27;20441;-59
2024/02/18 02:41:07;;;;;;;3.10;1.30;;;9.60;99.90;;;;;;5134594;27;20887;-60
2024/02/18 02:43:34;;;;;;;3.53;1.30;;;9.60;99.90;;;;;;5134805;27;20434;-60
2024/02/18 02:46:02;;;;;;;2.05;1.20;;;9.60;99.90;;;;;;5147109;27;20424;-60
2024/02/18 02:48:30;;;;;;;2.80;1.13;;;9.60;99.90;;;;;;5147170;27;20436;-60
2024/02/18 02:50:58;;;;;;;2.87;1.40;;;9.40;99.90;;;;;;5129065;27;20491;-58
2024/02/18 02:53:25;;;;;;;2.67;1.05;;;9.10;99.90;;;;;;5140026;27;20418;-59
2024/02/18 02:55:52;;;;;;;2.13;1.42;;;9.00;99.90;;;;;;5139307;27;20736;-58
2024/02/18 02:58:18;;;;;;;1.90;1.13;;;8.90;99.90;;;;;;5127494;27;20410;-58
2024/02/18 03:00:45;;;;;;;3.33;1.10;;;8.90;99.90;;;;;;5131246;27;20766;-58
2024/02/18 03:03:12;;;;;;;2.20;1.10;;;8.90;99.90;;;;;;5135714;27;20466;-58
2024/02/18 03:05:41;;;;;;;2.50;1.10;;;9.00;99.90;;;;;;5128775;27;20764;-58
2024/02/18 03:08:08;;;;;;;3.47;1.20;;;9.10;99.90;;;;;;5131027;27;20462;-58
2024/02/18 03:10:37;;;;;;;1.90;1.20;;;9.10;99.90;;;;;;5131049;27;20803;-58
2024/02/18 03:13:04;;;;;;;2.40;1.00;;;9.10;99.90;;;;;;5139026;27;20531;-58
2024/02/18 03:15:32;;;;;;;3.97;1.27;;;9.10;99.90;;;;;;5131464;27;20873;-61
2024/02/18 03:17:59;;;;;;;3.30;1.10;;;9.20;99.90;;;;;;5136972;27;20423;-58
2024/02/18 03:20:26;;;;;;;2.85;1.30;;;9.10;99.90;;;;;;5136314;27;20487;-59
2024/02/18 03:22:54;;;;;;;2.50;1.20;;;9.20;99.90;;;;;;5128211;27;20411;-59
2024/02/18 03:25:22;;;;;;;1.70;1.20;;;9.20;99.90;;;;;;5133069;27;20478;-58
2024/02/18 03:27:49;;;;;;;2.30;1.20;;;9.20;99.90;;;;;;5131145;27;20703;-59
2024/02/18 03:30:16;;;;;;;2.10;1.40;;;9.30;99.90;;;;;;5131340;27;20454;-58
2024/02/18 03:32:43;;;;;;;4.10;1.40;;;9.30;99.90;;;;;;5135621;27;20432;-59
2024/02/18 03:35:10;;;;;;;3.60;1.40;;;9.20;99.90;;;;;;5135875;27;20430;-58
2024/02/18 03:37:37;;;;;;;2.00;1.15;;;9.20;99.90;;;;;;5128130;27;20474;-58
2024/02/18 03:40:07;;;;;;;1.73;1.10;;;9.30;99.90;;;;;;5129015;27;20422;-59
2024/02/18 03:42:34;;;;;;;2.83;1.00;;;9.20;99.90;;;;;;5133350;27;20414;-58
2024/02/18 03:45:00;;;;;;;1.83;1.20;;;8.80;99.90;;;;;;5138715;27;20430;-59
2024/02/18 03:47:28;;;;;;;3.50;1.17;;;8.60;99.90;;;;;;5133683;27;20715;-58
2024/02/18 03:49:55;;;;;;;2.65;1.10;;;8.50;99.90;;;;;;5135311;27;20428;-58
2024/02/18 03:52:21;;;;;;;4.53;1.50;;;8.60;99.90;;;;;;5137048;27;20410;-58
2024/02/18 03:54:48;;;;;;;3.40;1.33;;;8.70;99.90;;;;;;5138292;27;20417;-59
2024/02/18 03:57:17;;;;;;;2.00;1.20;;;8.70;99.90;;;;;;5133317;27;20458;-60
2024/02/18 03:59:44;;;;;;;1.80;1.10;;;8.60;99.90;;;;;;5136399;27;20484;-59
2024/02/18 04:02:11;;;;;;;2.40;1.40;;;8.70;99.90;;;;;;5124128;27;20488;-59
2024/02/18 04:04:38;;;;;;;3.40;1.20;;;8.70;99.90;;;;;;5129958;27;20452;-59
2024/02/18 04:07:05;;;;;;;2.63;1.25;;;8.70;99.90;;;;;;5135789;27;20410;-59
2024/02/18 04:09:32;;;;;;;3.25;1.13;;;8.60;99.90;;;;;;5137821;27;20465;-59
2024/02/18 04:11:59;;;;;;;2.50;1.30;;;8.70;99.90;;;;;;5138179;27;20879;-58
2024/02/18 04:14:28;;;;;;;2.00;1.20;;;8.60;99.90;;;;;;5120154;27;20462;-59
2024/02/18 04:16:55;;;;;;;2.63;1.40;;;8.70;99.90;;;;;;5134610;27;20418;-59
2024/02/18 04:19:22;;;;;;;2.20;1.10;;;8.80;99.90;;;;;;5131980;27;20494;-59
2024/02/18 04:21:49;;;;;;;1.88;1.10;;;9.00;99.90;;;;;;5130128;27;20932;-59
2024/02/18 04:24:16;;;;;;;2.80;1.23;;;9.00;99.90;;;;;;5130207;27;20854;-59
2024/02/18 04:26:44;;;;;;;2.10;1.20;;;9.10;99.90;;;;;;5129343;27;20551;-59
2024/02/18 04:29:11;;;;;;;2.67;1.17;;;9.00;99.90;;;;;;5129484;27;20679;-59
2024/02/18 04:31:41;;;;;;;1.92;1.30;;;9.00;99.90;;;;;;5128333;27;20813;-59
2024/02/18 04:34:08;;;;;;;4.10;1.80;;;8.80;99.90;;;;;;5135137;27;20839;-59
2024/02/18 04:36:35;;;;;;;4.60;1.40;;;8.70;99.90;;;;;;5134510;27;20459;-59
2024/02/18 04:39:02;;;;;;;2.50;1.50;;;8.60;99.90;;;;;;5129579;27;20481;-59
2024/02/18 04:41:30;;;;;;;4.25;1.60;;;8.50;99.90;;;;;;5135869;27;20677;-59
2024/02/18 04:43:58;;;;;;;3.60;1.90;;;8.50;99.90;;;;;;5130265;27;20854;-59
2024/02/18 04:46:25;;;;;;;2.80;1.50;;;8.50;99.90;;;;;;5133451;27;20873;-59
2024/02/18 04:48:54;;;;;;;4.22;1.90;;;8.40;99.90;;;;;;5129142;27;20801;-59
2024/02/18 04:51:22;;;;;;;3.13;1.90;;;8.50;99.90;;;;;;5131133;27;20441;-59
2024/02/18 04:53:49;;;;;;;3.67;1.90;;;8.40;99.90;;;;;;5135352;27;20434;-58
2024/02/18 04:56:16;;;;;;;3.28;1.92;;;8.40;99.90;;;;;;5134960;27;20418;-59
2024/02/18 04:58:43;;;;;;;2.92;1.70;;;8.40;99.90;;;;;;5130172;27;20455;-59
2024/02/18 05:01:10;;;;;;;2.38;1.40;;;8.40;99.90;;;;;;5125558;27;20512;-59
2024/02/18 05:03:40;;;;;;;3.85;1.70;;;8.40;99.90;;;;;;5136412;27;20685;-59
2024/02/18 05:06:11;;;;;;;4.00;1.90;;;8.40;99.90;;;;;;5129111;27;20434;-59
2024/02/18 05:08:38;;;;;;;4.63;1.70;;;8.40;99.90;;;;;;5137452;27;20498;-59
2024/02/18 05:11:06;;;;;;;3.13;1.90;;;8.50;99.90;;;;;;5136009;27;20661;-59
2024/02/18 05:13:33;;;;;;;2.90;1.40;;;8.50;99.90;;;;;;5132174;27;20442;-59
2024/02/18 05:16:00;;;;;;;3.72;1.33;;;8.50;99.90;;;;;;5137936;27;20415;-59
2024/02/18 05:18:27;;;;;;;2.50;1.23;;;8.40;99.90;;;;;;5134431;28;20465;-59
2024/02/18 05:20:53;;;;;;;2.38;1.20;;;8.30;99.90;;;;;;5134837;28;20473;-60
2024/02/18 05:23:22;;;;;;;1.70;1.00;;;8.30;99.90;;;;;;5136540;27;20426;-59
2024/02/18 05:25:49;;;;;;;2.45;1.00;;;8.30;99.90;;;;;;5135162;28;20842;-59
2024/02/18 05:28:16;;;;;;;2.53;1.30;;;8.30;99.90;;;;;;5134732;28;20419;-59
2024/02/18 05:30:43;;;;;;;1.70;1.10;;;8.30;99.90;;;;;;5131932;28;20419;-59
2024/02/18 05:33:09;;;;;;;4.00;1.40;;;8.30;99.90;;;;;;5135266;28;20827;-60
2024/02/18 05:35:36;;;;;;;2.97;1.17;;;8.30;99.90;;;;;;5133386;28;20428;-59
2024/02/18 05:38:03;;;;;;;4.37;1.10;;;8.30;99.90;;;;;;5127157;28;20458;-59
2024/02/18 05:40:32;;;;;;;2.30;1.20;;;8.20;99.90;;;;;;5128856;28;20461;-59
2024/02/18 05:42:59;;;;;;;1.90;1.20;;;8.10;99.90;;;;;;5124684;28;20452;-59
2024/02/18 05:45:31;;;;;;;2.00;1.20;;;7.90;99.90;;;;;;5125887;28;20497;-59
2024/02/18 05:47:58;;;;;;;2.05;1.10;;;7.80;99.90;;;;;;5131043;27;20862;-59
2024/02/18 05:50:26;;;;;;;2.20;1.15;;;7.60;99.90;;;;;;5136163;27;20487;-59
2024/02/18 05:52:53;;;;;;;2.88;1.20;;;7.70;99.90;;;;;;5141251;27;20829;-59
2024/02/18 05:55:20;;;;;;;3.92;1.10;;;7.70;99.90;;;;;;5133015;27;20440;-59
2024/02/18 05:57:48;;;;;;;2.90;1.30;;;7.70;99.90;;;;;;5137838;27;20444;-59
2024/02/18 06:00:17;;;;;;;1.75;1.30;;;7.70;99.90;;;;;;5134100;27;20490;-59
2024/02/18 06:02:44;;;;;;;2.40;1.25;;;7.70;99.90;;;;;;5137463;27;20432;-59
2024/02/18 06:05:17;;;;;;;2.75;1.30;;;7.70;99.90;;;;;;5137630;27;20584;-60
2024/02/18 06:07:45;;;;;;;3.00;1.40;;;7.80;99.90;;;;;;5140253;27;20427;-59
2024/02/18 06:10:11;;;;;;;2.08;1.30;;;7.80;99.90;;;;;;5140715;27;20460;-59
2024/02/18 06:12:40;;;;;;;2.60;1.23;;;7.60;99.90;;;;;;5153337;27;20440;-59
2024/02/18 06:15:09;;;;;;;3.45;1.25;;;7.60;99.90;;;;;;5162102;27;20756;-59
2024/02/18 06:17:36;;;;;;;2.40;1.35;;;7.70;99.90;;;;;;5161578;27;20468;-59
2024/02/18 06:20:04;;;;;;;1.90;1.10;;;7.70;99.90;;;;;;5160926;27;20456;-60
2024/02/18 06:22:31;;;;;;;3.30;1.20;;;7.70;99.90;;;;;;5160314;27;20424;-59
2024/02/18 06:24:58;;;;;;;3.40;1.30;;;7.60;99.90;;;;;;5135422;27;20520;-59
2024/02/18 06:27:24;;;;;;;2.70;1.20;;;7.70;99.90;;;;;;5126013;27;20420;-60
2024/02/18 06:29:51;;;;;;;2.40;1.30;;;7.70;99.90;;;;;;5147755;27;20468;-59
2024/02/18 06:32:20;;;;;;;3.40;1.30;;;7.70;99.90;;;;;;5132143;27;20490;-59
2024/02/18 06:34:46;;;;;;;4.37;2.27;;;7.70;99.90;;;;;;5138902;27;20418;-59
2024/02/18 06:37:14;;;;;;;4.40;1.80;;;7.70;99.90;;;;;;5138404;27;20586;-59
2024/02/18 06:39:41;;;;;;;4.40;2.28;;;7.70;99.90;;;;;;5138789;27;20831;-60
2024/02/18 06:42:08;;;;;;;4.10;1.90;;;7.70;99.90;;;;;;5139215;27;20754;-60
2024/02/18 06:44:34;;;;;;;4.80;2.30;;;7.80;99.90;;;;;;5137522;27;20510;-60
2024/02/18 06:47:01;;;;;;;3.30;1.70;;;7.90;99.90;;;;;;5135355;27;20422;-60
2024/02/18 06:49:30;;;;;;;5.28;1.90;;;8.00;99.90;;;;;;5138877;27;20523;-60
2024/02/18 06:51:58;;;;;;;3.88;2.25;;;7.90;99.90;;;;;;5139845;27;20414;-60
2024/02/18 06:54:25;;;;;;;3.80;1.70;;;7.90;99.90;;;;;;5139627;27;20462;-60
2024/02/18 06:56:51;;;;;;;3.35;1.90;;;7.80;99.90;;;;;;5139170;27;20460;-60
2024/02/18 06:59:19;;;;;;;4.03;1.80;;;7.90;99.90;;;;;;5137830;27;20422;-60
2024/02/18 07:01:46;;;;;;;4.90;2.30;;;7.90;99.90;;;;;;5138848;27;20479;-60
2024/02/18 07:04:13;;;;;;;4.93;2.50;;;7.90;99.90;;;;;;5134238;27;20846;-60
2024/02/18 07:06:41;;;;;;;3.70;2.20;;;7.80;99.90;;;;;;5139385;27;20446;-60
2024/02/18 07:09:08;;;;;;;6.07;2.70;;;7.70;99.90;;;;;;5146729;27;20426;-60
2024/02/18 07:11:35;;;;;;;5.20;2.70;;;7.70;99.90;;;;;;5144172;27;20513;-60
2024/02/18 07:14:02;;;;;;;6.00;2.30;;;7.80;99.90;;;;;;5151482;27;20757;-60
2024/02/18 07:16:29;;;;;;;3.63;1.90;;;7.80;99.90;;;;;;5155729;27;20676;-60
2024/02/18 07:18:55;;;;;;;5.07;2.50;;;7.80;99.90;;;;;;5154385;27;20419;-60
2024/02/18 07:21:22;;;;;;;3.30;2.15;;;7.80;99.90;;;;;;5160328;27;20448;-64
2024/02/18 07:23:51;;;;;;;5.85;2.35;;;7.70;99.90;;;;;;5151281;27;20427;-60
2024/02/18 07:26:18;;;;;;;4.47;2.47;;;7.70;99.90;;;;;;5137252;27;20524;-59
2024/02/18 07:28:45;;;;;;;4.67;2.27;;;7.80;99.90;;;;;;5129138;27;20911;-59
2024/02/18 07:31:11;;;;;;;4.60;2.85;;;7.80;99.90;;;;;;5131767;27;20481;-59
2024/02/18 07:33:38;;;;;;;4.45;2.40;;;7.90;99.90;;;;;;5128675;27;20835;-59
2024/02/18 07:36:06;;;;;;;5.00;1.88;;;8.10;99.90;;;;;;5134518;27;20453;-59
2024/02/18 07:38:33;;;;;;;3.92;2.42;;;8.20;99.90;;;;;;5138185;27;20454;-58
2024/02/18 07:41:01;;;;;;;3.20;1.90;;;8.20;99.90;;;;;;5138769;27;20442;-59
2024/02/18 07:43:28;;;;;;;6.45;2.35;;;8.30;99.90;;;;;;5128488;27;20443;-59
2024/02/18 07:45:55;;;;;;;2.50;1.80;;;8.30;99.90;;;;;;5118357;28;20432;-60
2024/02/18 07:48:22;;;;;;;3.33;1.60;;;8.30;99.90;;;;;;5128738;27;20462;-60
2024/02/18 07:50:49;;;;;;;3.75;1.90;;;8.50;99.90;;;;;;5137827;27;20419;-59
2024/02/18 07:53:16;;;;;;;3.90;1.95;;;8.60;99.90;;;;;;5138657;27;20462;-59
2024/02/18 07:55:43;;;;;;;4.40;2.10;;;8.70;99.90;;;;;;5139027;27;20473;-59
2024/02/18 07:58:11;;;;;;;3.80;1.90;;;8.90;99.90;;;;;;5137902;27;20450;-59
2024/02/18 08:00:38;;;;;;;4.32;2.10;;;8.90;99.90;;;;;;5135723;27;20415;-59
2024/02/18 08:03:05;;;;;;;3.40;2.10;;;8.90;99.90;;;;;;5133360;27;20835;-59
2024/02/18 08:05:32;;;;;;;4.00;2.47;;;8.90;99.90;;;;;;5149597;27;20512;-59
2024/02/18 08:07:59;;;;;;;5.57;2.45;;;8.90;99.90;;;;;;5150315;27;20426;-59
2024/02/18 08:10:26;;;;;;;4.25;2.33;;;8.90;99.90;;;;;;5155090;27;20441;-58
2024/02/18 08:12:53;;;;;;;4.40;2.38;;;8.90;99.90;;;;;;5158797;27;20499;-59
2024/02/18 08:15:21;;;;;;;3.17;2.05;;;8.80;99.90;;;;;;5152351;27;20843;-59
2024/02/18 08:17:47;;;;;;;4.53;2.67;;;8.80;99.90;;;;;;5135457;27;20863;-60
2024/02/18 08:20:16;;;;;;;4.55;2.60;;;8.80;99.90;;;;;;5145174;27;20468;-58
2024/02/18 08:22:44;;;;;;;3.58;2.20;;;8.80;99.90;;;;;;5137673;27;20458;-60
2024/02/18 08:25:11;;;;;;;4.40;2.50;;;8.90;99.90;;;;;;5137195;27;20466;-60
2024/02/18 08:27:38;;;;;;;4.13;2.20;;;8.90;99.90;;;;;;5127168;27;20454;-60
2024/02/18 08:30:08;;;;;;;5.40;2.50;;;9.00;99.90;;;;;;5137733;27;20454;-60
2024/02/18 08:32:37;;;;;;;5.15;2.88;;;9.30;99.90;;;;;;5137460;27;20461;-59
2024/02/18 08:35:05;;;;;;;5.93;3.00;;;9.50;99.90;;;;;;5137387;27;20425;-60
2024/02/18 08:37:32;;;;;;;4.90;2.50;;;9.70;99.90;;;;;;5137619;27;20457;-59
2024/02/18 08:39:59;;;;;;;4.25;2.22;;;9.80;99.90;;;;;;5143050;27;20706;-59
2024/02/18 08:42:26;;;;;;;4.15;2.33;;;10.00;99.90;;;;;;5145993;27;20425;-59
2024/02/18 08:44:53;;;;;;;3.60;2.78;;;9.90;1.00;;;;;;5132141;27;20708;-59
2024/02/18 08:47:20;;;;;;;6.22;3.00;;;9.90;1.00;;;;;;5124905;27;20458;-59
2024/02/18 08:49:49;;;;;;;5.03;2.72;;;10.00;1.00;;;;;;5131060;27;20469;-59
2024/02/18 08:52:15;;;;;;;5.80;3.13;;;10.10;1.00;;;;;;5133515;27;20420;-59
2024/02/18 08:54:43;;;;;;;5.07;2.60;;;10.10;1.00;;;;;;5133748;27;20453;-60
2024/02/18 08:57:10;;;;;;;4.13;2.53;;;10.10;1.00;;;;;;5136702;27;20514;-60
2024/02/18 08:59:38;;;;;;;3.90;2.38;;;10.20;1.00;;;;;;5136333;27;20423;-59
2024/02/18 09:02:05;;;;;;;4.80;2.75;;;10.40;1.00;;;;;;5135636;27;20535;-60
2024/02/18 09:04:32;;;;;;;4.85;2.30;;;10.60;1.00;;;;;;5129457;27;20888;-60
2024/02/18 09:07:00;;;;;;;5.47;2.90;;;10.70;1.00;;;;;;5131510;27;20490;-60
2024/02/18 09:09:27;;;;;;;3.80;2.17;;;10.80;1.00;;;;;;5135078;27;20837;-59
2024/02/18 09:11:54;;;;;;;3.87;2.90;;;10.90;1.00;;;;;;5135811;27;20418;-61
2024/02/18 09:14:21;;;;;;;3.10;1.95;;;11.00;1.00;;;;;;5151101;27;20447;-59
2024/02/18 09:16:48;;;;;;;2.72;2.20;;;11.10;1.00;;;;;;5136688;28;20450;-59
2024/02/18 09:19:15;;;;;;;4.60;2.78;;;11.10;1.00;;;;;;5132059;27;20474;-59
2024/02/18 09:21:45;;;;;;;3.63;2.05;;;11.10;1.00;;;;;;5156394;27;20409;-60
2024/02/18 09:24:13;;;;;;;5.50;2.70;;;11.10;1.00;;;;;;5141286;27;20449;-59
2024/02/18 09:26:40;;;;;;;3.42;2.05;;;11.20;99.90;;;;;;5141025;27;20430;-59
2024/02/18 09:29:07;;;;;;;2.78;1.63;;;11.30;99.90;;;;;;5116207;28;20487;-59
2024/02/18 09:31:36;;;;;;;2.70;1.90;;;11.30;99.90;;;;;;5129578;27;20426;-59
2024/02/18 09:34:03;;;;;;;4.00;1.80;;;11.50;1.00;;;;;;5139597;27;20407;-60
2024/02/18 09:36:30;;;;;;;2.65;1.48;;;11.70;1.00;;;;;;5141122;27;20801;-60
2024/02/18 09:38:57;;;;;;;2.20;1.10;;;11.80;1.00;;;;;;5140859;27;20883;-59
2024/02/18 09:41:29;;;;;;;2.55;1.40;;;11.90;25.30;;;;;;5140566;27;20418;-59
2024/02/18 09:44:05;;;;;;;2.55;1.40;;;12.00;1.00;;;;;;5141145;27;20465;-59
2024/02/18 09:46:34;;;;;;;2.10;1.30;;;12.10;99.90;;;;;;5135730;27;20672;-60
2024/02/18 09:49:02;;;;;;;3.28;1.30;;;12.10;1.00;;;;;;5139693;27;20434;-59
2024/02/18 09:51:29;;;;;;;2.20;1.20;;;12.20;1.00;;;;;;5135816;27;20495;-60
2024/02/18 09:53:59;;;;;;;1.70;1.10;;;12.40;1.00;;;;;;5116744;28;20431;-60
2024/02/18 09:56:28;;;;;;;3.22;1.10;;;12.60;1.00;;;;;;5119088;28;20527;-60
2024/02/18 09:58:55;;;;;;;1.45;1.10;;;12.60;1.00;;;;;;5115652;28;20621;-60
2024/02/18 10:01:23;;;;;;;1.90;1.20;;;12.60;1.00;;;;;;5117597;28;20408;-60
2024/02/18 10:03:51;;;;;;;2.20;1.10;;;12.40;1.00;;;;;;5118896;28;20463;-60
2024/02/18 10:06:18;;;;;;;1.92;1.00;;;12.50;1.00;;;;;;5119656;28;20432;-60
2024/02/18 10:08:51;;;;;;;1.70;1.00;;;12.60;99.90;;;;;;5135737;27;20417;-60
2024/02/18 10:11:20;;;;;;;1.30;0.90;;;12.60;99.90;;;;;;5151197;27;20437;-60
2024/02/18 10:13:49;;;;;;;1.60;1.00;;;12.70;99.90;;;;;;5153171;27;20609;-60
2024/02/18 10:16:16;;;;;;;2.20;0.90;;;12.60;99.90;;;;;;5160227;27;20409;-61
2024/02/18 10:18:43;;;;;;;1.30;0.80;;;12.60;99.90;;;;;;5160620;27;20810;-60
2024/02/18 10:21:11;;;;;;;1.60;0.90;;;12.80;99.90;;;;;;5149732;27;20433;-60
2024/02/18 10:23:39;;;;;;;1.70;0.90;;;12.80;99.90;;;;;;5140453;27;20855;-60
2024/02/18 10:26:07;;;;;;;1.20;0.90;;;12.70;99.90;;;;;;5134904;27;20441;-59
2024/02/18 10:28:35;;;;;;;1.20;0.73;;;12.60;99.90;;;;;;5151791;27;20420;-60
2024/02/18 10:31:04;;;;;;;1.30;0.90;;;12.70;99.90;;;;;;5154801;27;20440;-60
2024/02/18 10:33:32;;;;;;;1.15;0.82;;;12.70;99.90;;;;;;5160572;27;20527;-63
2024/02/18 10:36:04;;;;;;;1.40;0.90;;;12.80;99.90;;;;;;5158891;27;20503;-60
2024/02/18 10:38:33;;;;;;;1.80;0.80;;;12.90;99.90;;;;;;5152967;27;20430;-60
2024/02/18 10:41:03;;;;;;;1.27;0.80;;;13.00;99.90;;;;;;5133238;27;20468;-60
2024/02/18 10:43:32;;;;;;;1.40;0.82;;;13.10;99.90;;;;;;5135597;27;20430;-60
2024/02/18 10:46:01;;;;;;;1.30;0.85;;;13.30;99.90;;;;;;5139639;27;20707;-60
2024/02/18 10:48:32;;;;;;;1.50;0.85;;;13.50;99.90;;;;;;5139493;27;20464;-60
2024/02/18 10:51:02;;;;;;;1.30;0.90;;;13.60;99.90;;;;;;5139463;27;20854;-60
2024/02/18 10:53:34;;;;;;;1.10;0.73;;;13.50;99.90;;;;;;5138643;27;20458;-60
2024/02/18 10:56:08;;;;;;;1.98;0.90;;;13.50;99.90;;;;;;5137973;27;20507;-60
2024/02/18 10:58:49;;;;;;;1.30;0.90;;;13.50;99.90;;;;;;5137347;27;20442;-59
2024/02/18 11:01:20;;;;;;;1.60;0.98;;;13.50;99.90;;;;;;5143295;27;20499;-60
2024/02/18 11:03:51;;;;;;;1.33;0.85;;;13.40;99.90;;;;;;5135389;27;20485;-60
2024/02/18 11:06:18;;;;;;;1.30;0.90;;;13.50;99.90;;;;;;5144534;27;20434;-60
2024/02/18 11:08:47;;;;;;;1.50;0.80;;;13.50;99.90;;;;;;5147581;27;20881;-60
2024/02/18 11:11:14;;;;;;;1.55;0.80;;;13.50;99.90;;;;;;5144042;27;20974;-60
2024/02/18 11:13:41;;;;;;;1.20;0.80;;;13.60;99.90;;;;;;5159737;27;20421;-59
2024/02/18 11:16:10;;;;;;;1.33;0.80;;;13.80;99.90;;;;;;5148733;27;20445;-60
2024/02/18 11:18:38;;;;;;;1.65;0.90;;;13.70;99.90;;;;;;5139128;27;20524;-59
2024/02/18 11:21:07;;;;;;;1.70;0.95;;;13.70;99.90;;;;;;5134269;27;20454;-60
2024/02/18 11:23:34;;;;;;;1.63;0.80;;;13.60;99.90;;;;;;5136173;27;20422;-59
2024/02/18 11:26:01;;;;;;;1.83;0.75;;;13.60;99.90;;;;;;5134770;27;20821;-59
2024/02/18 11:28:32;;;;;;;1.30;0.82;;;13.70;99.90;;;;;;5132817;27;20459;-60
2024/02/18 11:30:59;;;;;;;1.20;0.70;;;13.70;99.90;;;;;;5123487;27;20412;-60
2024/02/18 11:33:25;;;;;;;1.20;0.70;;;13.80;99.90;;;;;;5130027;27;20435;-60
2024/02/18 11:36:14;;;;;;;1.10;0.70;;;13.80;99.90;;;;;;5139170;27;20468;-60
2024/02/18 11:38:45;;;;;;;1.20;0.70;;;13.90;99.90;;;;;;5144158;27;20409;-59
2024/02/18 11:41:20;;;;;;;1.10;0.70;;;13.80;95.00;;;;;;5159556;27;20804;-60
2024/02/18 11:43:53;;;;;;;1.10;0.60;;;13.60;97.50;;;;;;5142332;27;20451;-59
2024/02/18 11:46:23;;;;;;;1.70;0.80;;;13.80;99.90;;;;;;5149083;27;20450;-60
2024/02/18 11:48:50;;;;;;;2.00;0.70;;;13.80;95.20;;;;;;5147848;27;20409;-59
2024/02/18 11:51:18;;;;;;;1.80;0.75;;;13.80;84.80;;;;;;5159596;27;20732;-60
2024/02/18 11:53:45;;;;;;;1.30;0.80;;;13.80;67.90;;;;;;5154296;27;20453;-63
2024/02/18 11:56:14;;;;;;;1.40;0.70;;;13.90;83.90;;;;;;5143049;27;20477;-60
2024/02/18 11:58:41;;;;;;;1.00;0.70;;;14.10;90.60;;;;;;5159475;27;20420;-59
2024/02/18 12:01:08;;;;;;;1.02;0.70;;;14.20;86.00;;;;;;5134365;27;20459;-60
2024/02/18 12:03:35;;;;;;;1.40;0.70;;;14.20;51.00;;;;;;5139773;27;20461;-60
2024/02/18 12:06:05;;;;;;;0.95;0.60;;;14.20;38.20;;;;;;5136552;27;20427;-60
2024/02/18 12:08:33;;;;;;;0.70;0.60;;;14.20;35.10;;;;;;5125287;27;20432;-60
2024/02/18 12:11:01;;;;;;;0.90;0.60;;;14.20;36.00;;;;;;5133018;27;20441;-60
2024/02/18 12:13:28;;;;;;;1.00;0.60;;;14.30;30.70;;;;;;5119371;27;20428;-60
2024/02/18 12:15:58;;;;;;;1.30;0.60;;;14.20;19.20;;;;;;5116548;28;20412;-60
2024/02/18 12:18:25;;;;;;;0.90;0.60;;;14.30;28.40;;;;;;5116770;28;20420;-60
2024/02/18 12:20:53;;;;;;;1.10;0.70;;;14.40;12.90;;;;;;5116687;28;20424;-60
2024/02/18 12:23:21;;;;;;;0.90;0.50;;;14.40;1.00;;;;;;5136777;27;20497;-59
2024/02/18 12:25:50;;;;;;;0.98;0.55;;;14.20;1.00;;;;;;5133948;27;20426;-59
2024/02/18 12:28:18;;;;;;;1.33;0.70;;;14.10;18.30;;;;;;5132511;27;20410;-60
2024/02/18 12:30:46;;;;;;;1.10;0.70;;;14.10;1.00;;;;;;5134748;27;20417;-60
2024/02/18 12:33:13;;;;;;;1.20;0.70;;;14.10;1.70;;;;;;5135429;27;20422;-59
2024/02/18 12:35:40;;;;;;;1.60;0.70;;;14.20;16.30;;;;;;5137968;27;20458;-58
2024/02/18 12:38:09;;;;;;;1.60;0.70;;;14.40;28.90;;;;;;5142391;27;20434;-60
2024/02/18 12:40:37;;;;;;;1.80;0.70;;;14.50;35.90;;;;;;5135979;27;20974;-60
2024/02/18 12:43:06;;;;;;;1.10;0.70;;;14.60;31.60;;;;;;5133862;27;20418;-60
2024/02/18 12:45:34;;;;;;;1.30;0.80;;;14.50;16.60;;;;;;5131869;27;20411;-60
2024/02/18 12:48:01;;;;;;;2.00;0.80;;;14.40;25.50;;;;;;5153578;27;20425;-60
2024/02/18 12:50:28;;;;;;;1.40;0.90;;;14.30;27.80;;;;;;5158149;27;20417;-60
2024/02/18 12:52:56;;;;;;;1.30;0.80;;;14.40;24.40;;;;;;5157476;27;20456;-60
2024/02/18 12:55:22;;;;;;;1.58;0.90;;;14.30;24.20;;;;;;5158297;27;20409;-61